sensor_id;sensor_type;location;lat;lon;timestamp;P1;durP1;ratioP1;P2;durP2;ratioP2
75691;SDS011;64307;52.508;6.090;2023-04-03T00:01:58;3.15;;;1.08;;
75691;SDS011;64307;52.508;6.090;2023-04-03T00:04:23;3.80;;;1.07;;
75691;SDS011;64307;52.508;6.090;2023-04-03T00:06:49;3.15;;;1.10;;
75691;SDS011;64307;52.508;6.090;2023-04-03T00:09:14;2.60;;;0.53;;
75691;SDS011;64307;52.508;6.090;2023-04-03T00:11:41;4.32;;;1.02;;
75691;SDS011;64307;52.508;6.090;2023-04-03T00:14:06;3.05;;;1.23;;
75691;SDS011;64307;52.508;6.090;2023-04-03T00:16:31;3.25;;;1.02;;
75691;SDS011;64307;52.508;6.090;2023-04-03T00:18:57;3.40;;;0.90;;
75691;SDS011;64307;52.508;6.090;2023-04-03T00:21:22;3.88;;;0.75;;
75691;SDS011;64307;52.508;6.090;2023-04-03T00:23:47;1.90;;;0.55;;
75691;SDS011;64307;52.508;6.090;2023-04-03T00:26:13;4.15;;;0.90;;
75691;SDS011;64307;52.508;6.090;2023-04-03T00:28:38;2.85;;;0.88;;
75691;SDS011;64307;52.508;6.090;2023-04-03T00:31:03;4.05;;;0.90;;
75691;SDS011;64307;52.508;6.090;2023-04-03T00:33:30;4.20;;;1.30;;
75691;SDS011;64307;52.508;6.090;2023-04-03T00:35:55;3.97;;;1.02;;
75691;SDS011;64307;52.508;6.090;2023-04-03T00:38:21;2.87;;;0.80;;
75691;SDS011;64307;52.508;6.090;2023-04-03T00:40:47;2.45;;;1.13;;
75691;SDS011;64307;52.508;6.090;2023-04-03T00:43:15;4.82;;;0.85;;
75691;SDS011;64307;52.508;6.090;2023-04-03T00:45:48;2.65;;;1.00;;
75691;SDS011;64307;52.508;6.090;2023-04-03T00:51:09;4.10;;;1.10;;
75691;SDS011;64307;52.508;6.090;2023-04-03T00:53:43;3.40;;;1.35;;
75691;SDS011;64307;52.508;6.090;2023-04-03T00:56:12;3.97;;;0.75;;
75691;SDS011;64307;52.508;6.090;2023-04-03T00:58:41;2.97;;;1.10;;
75691;SDS011;64307;52.508;6.090;2023-04-03T01:01:12;2.72;;;1.00;;
75691;SDS011;64307;52.508;6.090;2023-04-03T01:03:42;2.25;;;1.23;;
75691;SDS011;64307;52.508;6.090;2023-04-03T01:06:07;1.80;;;0.65;;
75691;SDS011;64307;52.508;6.090;2023-04-03T01:08:32;2.83;;;0.98;;
75691;SDS011;64307;52.508;6.090;2023-04-03T01:10:58;4.18;;;1.63;;
75691;SDS011;64307;52.508;6.090;2023-04-03T01:13:26;2.55;;;0.98;;
75691;SDS011;64307;52.508;6.090;2023-04-03T01:15:55;3.42;;;1.27;;
75691;SDS011;64307;52.508;6.090;2023-04-03T01:18:22;3.97;;;1.17;;
75691;SDS011;64307;52.508;6.090;2023-04-03T01:23:36;3.55;;;1.17;;
75691;SDS011;64307;52.508;6.090;2023-04-03T01:26:14;4.25;;;0.80;;
75691;SDS011;64307;52.508;6.090;2023-04-03T01:28:40;5.15;;;0.98;;
75691;SDS011;64307;52.508;6.090;2023-04-03T01:31:18;6.10;;;1.13;;
75691;SDS011;64307;52.508;6.090;2023-04-03T01:33:50;2.85;;;1.50;;
75691;SDS011;64307;52.508;6.090;2023-04-03T01:36:17;1.80;;;0.95;;
75691;SDS011;64307;52.508;6.090;2023-04-03T01:38:45;2.25;;;0.90;;
75691;SDS011;64307;52.508;6.090;2023-04-03T01:41:11;4.13;;;1.30;;
75691;SDS011;64307;52.508;6.090;2023-04-03T01:43:36;4.43;;;1.38;;
75691;SDS011;64307;52.508;6.090;2023-04-03T01:46:01;9.02;;;1.63;;
75691;SDS011;64307;52.508;6.090;2023-04-03T01:48:28;2.70;;;1.42;;
75691;SDS011;64307;52.508;6.090;2023-04-03T01:50:54;4.30;;;0.90;;
75691;SDS011;64307;52.508;6.090;2023-04-03T01:53:19;2.97;;;0.73;;
75691;SDS011;64307;52.508;6.090;2023-04-03T01:55:44;5.50;;;1.10;;
75691;SDS011;64307;52.508;6.090;2023-04-03T01:58:10;3.03;;;1.40;;
75691;SDS011;64307;52.508;6.090;2023-04-03T02:00:35;2.72;;;0.75;;
75691;SDS011;64307;52.508;6.090;2023-04-03T02:03:01;3.58;;;1.30;;
75691;SDS011;64307;52.508;6.090;2023-04-03T02:05:29;3.38;;;1.27;;
75691;SDS011;64307;52.508;6.090;2023-04-03T02:07:55;2.13;;;0.68;;
75691;SDS011;64307;52.508;6.090;2023-04-03T02:10:20;3.83;;;1.33;;
75691;SDS011;64307;52.508;6.090;2023-04-03T02:12:45;2.35;;;0.98;;
75691;SDS011;64307;52.508;6.090;2023-04-03T02:15:11;5.03;;;0.85;;
75691;SDS011;64307;52.508;6.090;2023-04-03T02:20:03;5.87;;;0.90;;
75691;SDS011;64307;52.508;6.090;2023-04-03T02:22:30;3.42;;;1.15;;
75691;SDS011;64307;52.508;6.090;2023-04-03T02:24:55;2.47;;;0.82;;
75691;SDS011;64307;52.508;6.090;2023-04-03T02:27:21;5.55;;;1.02;;
75691;SDS011;64307;52.508;6.090;2023-04-03T02:29:46;4.57;;;1.33;;
75691;SDS011;64307;52.508;6.090;2023-04-03T02:32:11;5.07;;;1.63;;
75691;SDS011;64307;52.508;6.090;2023-04-03T02:34:37;3.25;;;1.52;;
75691;SDS011;64307;52.508;6.090;2023-04-03T02:37:02;4.18;;;1.02;;
75691;SDS011;64307;52.508;6.090;2023-04-03T02:39:28;3.08;;;1.48;;
75691;SDS011;64307;52.508;6.090;2023-04-03T02:41:53;3.90;;;1.23;;
75691;SDS011;64307;52.508;6.090;2023-04-03T02:44:18;2.28;;;1.25;;
75691;SDS011;64307;52.508;6.090;2023-04-03T02:46:44;3.95;;;1.38;;
75691;SDS011;64307;52.508;6.090;2023-04-03T02:49:09;2.85;;;1.20;;
75691;SDS011;64307;52.508;6.090;2023-04-03T02:51:35;2.90;;;1.05;;
75691;SDS011;64307;52.508;6.090;2023-04-03T02:54:00;3.33;;;1.27;;
75691;SDS011;64307;52.508;6.090;2023-04-03T02:56:26;4.13;;;1.15;;
75691;SDS011;64307;52.508;6.090;2023-04-03T02:58:51;4.50;;;1.02;;
75691;SDS011;64307;52.508;6.090;2023-04-03T03:01:18;4.55;;;1.05;;
75691;SDS011;64307;52.508;6.090;2023-04-03T03:03:43;2.85;;;1.33;;
75691;SDS011;64307;52.508;6.090;2023-04-03T03:06:11;5.13;;;1.92;;
75691;SDS011;64307;52.508;6.090;2023-04-03T03:08:39;4.97;;;1.25;;
75691;SDS011;64307;52.508;6.090;2023-04-03T03:11:05;3.78;;;1.08;;
75691;SDS011;64307;52.508;6.090;2023-04-03T03:13:31;5.00;;;1.58;;
75691;SDS011;64307;52.508;6.090;2023-04-03T03:15:56;3.53;;;1.15;;
75691;SDS011;64307;52.508;6.090;2023-04-03T03:18:21;3.75;;;1.40;;
75691;SDS011;64307;52.508;6.090;2023-04-03T03:20:50;4.75;;;1.50;;
75691;SDS011;64307;52.508;6.090;2023-04-03T03:23:17;3.72;;;1.23;;
75691;SDS011;64307;52.508;6.090;2023-04-03T03:25:42;4.60;;;0.80;;
75691;SDS011;64307;52.508;6.090;2023-04-03T03:28:08;5.10;;;1.63;;
75691;SDS011;64307;52.508;6.090;2023-04-03T03:30:33;5.25;;;1.40;;
75691;SDS011;64307;52.508;6.090;2023-04-03T03:32:59;5.75;;;1.13;;
75691;SDS011;64307;52.508;6.090;2023-04-03T03:35:24;2.90;;;1.23;;
75691;SDS011;64307;52.508;6.090;2023-04-03T03:37:50;3.33;;;1.10;;
75691;SDS011;64307;52.508;6.090;2023-04-03T03:40:15;3.45;;;1.48;;
75691;SDS011;64307;52.508;6.090;2023-04-03T03:42:40;4.88;;;1.88;;
75691;SDS011;64307;52.508;6.090;2023-04-03T03:45:06;3.03;;;1.23;;
75691;SDS011;64307;52.508;6.090;2023-04-03T03:49:57;3.33;;;1.43;;
75691;SDS011;64307;52.508;6.090;2023-04-03T03:52:24;3.70;;;1.20;;
75691;SDS011;64307;52.508;6.090;2023-04-03T03:54:51;4.68;;;1.83;;
75691;SDS011;64307;52.508;6.090;2023-04-03T03:57:16;3.75;;;1.63;;
75691;SDS011;64307;52.508;6.090;2023-04-03T03:59:41;2.63;;;1.40;;
75691;SDS011;64307;52.508;6.090;2023-04-03T04:02:07;6.55;;;1.80;;
75691;SDS011;64307;52.508;6.090;2023-04-03T04:04:33;4.63;;;1.50;;
75691;SDS011;64307;52.508;6.090;2023-04-03T04:06:58;5.68;;;1.98;;
75691;SDS011;64307;52.508;6.090;2023-04-03T04:09:25;4.63;;;1.40;;
75691;SDS011;64307;52.508;6.090;2023-04-03T04:11:51;6.18;;;1.95;;
75691;SDS011;64307;52.508;6.090;2023-04-03T04:14:16;5.32;;;1.65;;
75691;SDS011;64307;52.508;6.090;2023-04-03T04:16:42;4.03;;;1.67;;
75691;SDS011;64307;52.508;6.090;2023-04-03T04:19:07;4.78;;;1.83;;
75691;SDS011;64307;52.508;6.090;2023-04-03T04:21:32;4.20;;;1.67;;
75691;SDS011;64307;52.508;6.090;2023-04-03T04:23:58;4.72;;;1.38;;
75691;SDS011;64307;52.508;6.090;2023-04-03T04:26:23;3.83;;;1.65;;
75691;SDS011;64307;52.508;6.090;2023-04-03T04:28:50;3.63;;;1.38;;
75691;SDS011;64307;52.508;6.090;2023-04-03T04:31:15;4.05;;;1.27;;
75691;SDS011;64307;52.508;6.090;2023-04-03T04:33:41;6.68;;;1.67;;
75691;SDS011;64307;52.508;6.090;2023-04-03T04:36:06;6.07;;;1.75;;
75691;SDS011;64307;52.508;6.090;2023-04-03T04:38:31;7.13;;;1.92;;
75691;SDS011;64307;52.508;6.090;2023-04-03T04:40:57;5.47;;;1.77;;
75691;SDS011;64307;52.508;6.090;2023-04-03T04:43:22;3.97;;;1.25;;
75691;SDS011;64307;52.508;6.090;2023-04-03T04:45:48;4.67;;;1.70;;
75691;SDS011;64307;52.508;6.090;2023-04-03T04:48:13;6.75;;;1.95;;
75691;SDS011;64307;52.508;6.090;2023-04-03T04:50:38;4.25;;;1.55;;
75691;SDS011;64307;52.508;6.090;2023-04-03T04:53:03;6.03;;;1.65;;
75691;SDS011;64307;52.508;6.090;2023-04-03T04:55:29;5.28;;;1.48;;
75691;SDS011;64307;52.508;6.090;2023-04-03T04:57:54;3.33;;;1.23;;
75691;SDS011;64307;52.508;6.090;2023-04-03T05:00:20;3.95;;;1.48;;
75691;SDS011;64307;52.508;6.090;2023-04-03T05:02:45;5.45;;;2.55;;
75691;SDS011;64307;52.508;6.090;2023-04-03T05:05:11;4.85;;;1.52;;
75691;SDS011;64307;52.508;6.090;2023-04-03T05:07:37;4.75;;;1.55;;
75691;SDS011;64307;52.508;6.090;2023-04-03T05:10:03;4.60;;;1.88;;
75691;SDS011;64307;52.508;6.090;2023-04-03T05:12:28;8.50;;;2.15;;
75691;SDS011;64307;52.508;6.090;2023-04-03T05:14:54;3.83;;;1.27;;
75691;SDS011;64307;52.508;6.090;2023-04-03T05:17:20;4.80;;;1.80;;
75691;SDS011;64307;52.508;6.090;2023-04-03T05:19:45;6.15;;;1.88;;
75691;SDS011;64307;52.508;6.090;2023-04-03T05:22:11;8.65;;;2.10;;
75691;SDS011;64307;52.508;6.090;2023-04-03T05:24:37;4.75;;;2.10;;
75691;SDS011;64307;52.508;6.090;2023-04-03T05:27:03;4.43;;;1.20;;
75691;SDS011;64307;52.508;6.090;2023-04-03T05:29:28;7.45;;;1.48;;
75691;SDS011;64307;52.508;6.090;2023-04-03T05:31:53;2.85;;;1.25;;
75691;SDS011;64307;52.508;6.090;2023-04-03T05:34:19;6.10;;;1.85;;
75691;SDS011;64307;52.508;6.090;2023-04-03T05:36:45;5.68;;;1.98;;
75691;SDS011;64307;52.508;6.090;2023-04-03T05:39:10;6.70;;;2.08;;
75691;SDS011;64307;52.508;6.090;2023-04-03T05:41:35;4.45;;;1.42;;
75691;SDS011;64307;52.508;6.090;2023-04-03T05:44:01;6.55;;;1.77;;
75691;SDS011;64307;52.508;6.090;2023-04-03T05:46:26;10.73;;;2.47;;
75691;SDS011;64307;52.508;6.090;2023-04-03T05:48:51;3.57;;;1.57;;
75691;SDS011;64307;52.508;6.090;2023-04-03T05:51:18;3.70;;;2.45;;
75691;SDS011;64307;52.508;6.090;2023-04-03T05:53:46;2.35;;;1.38;;
75691;SDS011;64307;52.508;6.090;2023-04-03T05:56:12;5.63;;;1.83;;
75691;SDS011;64307;52.508;6.090;2023-04-03T05:58:37;8.30;;;2.15;;
75691;SDS011;64307;52.508;6.090;2023-04-03T06:01:03;4.28;;;1.80;;
75691;SDS011;64307;52.508;6.090;2023-04-03T06:03:28;2.67;;;1.33;;
75691;SDS011;64307;52.508;6.090;2023-04-03T06:05:54;5.07;;;2.00;;
75691;SDS011;64307;52.508;6.090;2023-04-03T06:08:19;3.63;;;1.42;;
75691;SDS011;64307;52.508;6.090;2023-04-03T06:10:45;7.55;;;2.85;;
75691;SDS011;64307;52.508;6.090;2023-04-03T06:13:10;4.35;;;2.38;;
75691;SDS011;64307;52.508;6.090;2023-04-03T06:15:36;7.60;;;2.17;;
75691;SDS011;64307;52.508;6.090;2023-04-03T06:18:01;4.78;;;1.42;;
75691;SDS011;64307;52.508;6.090;2023-04-03T06:20:27;5.68;;;2.03;;
75691;SDS011;64307;52.508;6.090;2023-04-03T06:22:52;8.63;;;1.55;;
75691;SDS011;64307;52.508;6.090;2023-04-03T06:25:18;5.53;;;2.15;;
75691;SDS011;64307;52.508;6.090;2023-04-03T06:27:44;7.10;;;1.73;;
75691;SDS011;64307;52.508;6.090;2023-04-03T06:30:10;4.93;;;1.98;;
75691;SDS011;64307;52.508;6.090;2023-04-03T06:32:36;7.82;;;1.67;;
75691;SDS011;64307;52.508;6.090;2023-04-03T06:35:02;5.68;;;1.45;;
75691;SDS011;64307;52.508;6.090;2023-04-03T06:37:28;7.25;;;1.67;;
75691;SDS011;64307;52.508;6.090;2023-04-03T06:39:55;6.30;;;1.88;;
75691;SDS011;64307;52.508;6.090;2023-04-03T06:42:20;6.05;;;1.88;;
75691;SDS011;64307;52.508;6.090;2023-04-03T06:44:46;5.63;;;1.73;;
75691;SDS011;64307;52.508;6.090;2023-04-03T06:47:12;4.32;;;1.95;;
75691;SDS011;64307;52.508;6.090;2023-04-03T06:49:39;7.18;;;2.25;;
75691;SDS011;64307;52.508;6.090;2023-04-03T06:52:04;7.32;;;1.92;;
75691;SDS011;64307;52.508;6.090;2023-04-03T06:54:30;5.68;;;1.80;;
75691;SDS011;64307;52.508;6.090;2023-04-03T06:56:56;4.57;;;1.38;;
75691;SDS011;64307;52.508;6.090;2023-04-03T06:59:21;5.95;;;1.60;;
75691;SDS011;64307;52.508;6.090;2023-04-03T07:01:46;6.77;;;1.80;;
75691;SDS011;64307;52.508;6.090;2023-04-03T07:04:12;8.15;;;1.60;;
75691;SDS011;64307;52.508;6.090;2023-04-03T07:06:38;3.65;;;1.05;;
75691;SDS011;64307;52.508;6.090;2023-04-03T07:09:03;7.35;;;1.48;;
75691;SDS011;64307;52.508;6.090;2023-04-03T07:11:28;3.85;;;1.20;;
75691;SDS011;64307;52.508;6.090;2023-04-03T07:13:54;4.45;;;1.20;;
75691;SDS011;64307;52.508;6.090;2023-04-03T07:16:20;6.00;;;1.30;;
75691;SDS011;64307;52.508;6.090;2023-04-03T07:18:46;4.75;;;1.15;;
75691;SDS011;64307;52.508;6.090;2023-04-03T07:21:12;4.78;;;1.23;;
75691;SDS011;64307;52.508;6.090;2023-04-03T07:23:39;5.90;;;1.20;;
75691;SDS011;64307;52.508;6.090;2023-04-03T07:26:04;5.15;;;1.02;;
75691;SDS011;64307;52.508;6.090;2023-04-03T07:28:31;5.22;;;1.33;;
75691;SDS011;64307;52.508;6.090;2023-04-03T07:31:04;5.43;;;1.33;;
75691;SDS011;64307;52.508;6.090;2023-04-03T07:33:33;5.25;;;1.02;;
75691;SDS011;64307;52.508;6.090;2023-04-03T07:35:59;4.32;;;1.33;;
75691;SDS011;64307;52.508;6.090;2023-04-03T07:38:26;3.83;;;1.10;;
75691;SDS011;64307;52.508;6.090;2023-04-03T07:40:52;3.42;;;1.00;;
75691;SDS011;64307;52.508;6.090;2023-04-03T07:43:18;3.88;;;1.10;;
75691;SDS011;64307;52.508;6.090;2023-04-03T07:45:45;4.47;;;1.30;;
75691;SDS011;64307;52.508;6.090;2023-04-03T07:48:12;3.72;;;1.33;;
75691;SDS011;64307;52.508;6.090;2023-04-03T07:50:45;4.65;;;1.48;;
75691;SDS011;64307;52.508;6.090;2023-04-03T07:53:11;4.25;;;1.60;;
75691;SDS011;64307;52.508;6.090;2023-04-03T07:55:36;3.45;;;0.80;;
75691;SDS011;64307;52.508;6.090;2023-04-03T07:58:11;4.20;;;0.95;;
75691;SDS011;64307;52.508;6.090;2023-04-03T08:00:39;3.72;;;1.15;;
75691;SDS011;64307;52.508;6.090;2023-04-03T08:03:05;4.88;;;1.20;;
75691;SDS011;64307;52.508;6.090;2023-04-03T08:05:31;5.15;;;1.13;;
75691;SDS011;64307;52.508;6.090;2023-04-03T08:08:00;3.67;;;1.05;;
75691;SDS011;64307;52.508;6.090;2023-04-03T08:10:26;4.03;;;0.98;;
75691;SDS011;64307;52.508;6.090;2023-04-03T08:12:51;2.45;;;0.88;;
75691;SDS011;64307;52.508;6.090;2023-04-03T08:15:16;2.67;;;0.80;;
75691;SDS011;64307;52.508;6.090;2023-04-03T08:17:42;3.72;;;0.73;;
75691;SDS011;64307;52.508;6.090;2023-04-03T08:20:07;3.05;;;1.00;;
75691;SDS011;64307;52.508;6.090;2023-04-03T08:22:34;3.88;;;1.08;;
75691;SDS011;64307;52.508;6.090;2023-04-03T08:25:00;3.85;;;0.95;;
75691;SDS011;64307;52.508;6.090;2023-04-03T08:27:26;4.05;;;1.30;;
75691;SDS011;64307;52.508;6.090;2023-04-03T08:29:52;5.72;;;1.38;;
75691;SDS011;64307;52.508;6.090;2023-04-03T08:32:17;3.95;;;0.82;;
75691;SDS011;64307;52.508;6.090;2023-04-03T08:34:43;3.53;;;1.23;;
75691;SDS011;64307;52.508;6.090;2023-04-03T08:37:09;4.20;;;1.00;;
75691;SDS011;64307;52.508;6.090;2023-04-03T08:39:34;2.53;;;0.93;;
75691;SDS011;64307;52.508;6.090;2023-04-03T08:42:01;4.85;;;1.00;;
75691;SDS011;64307;52.508;6.090;2023-04-03T08:49:49;3.45;;;0.73;;
75691;SDS011;64307;52.508;6.090;2023-04-03T08:52:18;2.88;;;0.77;;
75691;SDS011;64307;52.508;6.090;2023-04-03T08:55:04;2.25;;;0.82;;
75691;SDS011;64307;52.508;6.090;2023-04-03T09:00:00;2.63;;;0.90;;
75691;SDS011;64307;52.508;6.090;2023-04-03T09:02:31;3.88;;;1.20;;
75691;SDS011;64307;52.508;6.090;2023-04-03T09:04:59;2.78;;;0.80;;
75691;SDS011;64307;52.508;6.090;2023-04-03T09:07:48;2.33;;;0.68;;
75691;SDS011;64307;52.508;6.090;2023-04-03T09:10:23;2.13;;;0.55;;
75691;SDS011;64307;52.508;6.090;2023-04-03T09:12:59;3.58;;;0.70;;
75691;SDS011;64307;52.508;6.090;2023-04-03T09:15:30;2.65;;;1.17;;
75691;SDS011;64307;52.508;6.090;2023-04-03T09:23:12;2.20;;;0.50;;
75691;SDS011;64307;52.508;6.090;2023-04-03T09:26:05;2.22;;;0.60;;
75691;SDS011;64307;52.508;6.090;2023-04-03T09:28:37;1.98;;;0.40;;
75691;SDS011;64307;52.508;6.090;2023-04-03T09:31:18;3.70;;;0.40;;
75691;SDS011;64307;52.508;6.090;2023-04-03T09:33:44;3.65;;;0.57;;
75691;SDS011;64307;52.508;6.090;2023-04-03T09:36:12;1.65;;;0.30;;
75691;SDS011;64307;52.508;6.090;2023-04-03T09:38:38;2.03;;;0.43;;
75691;SDS011;64307;52.508;6.090;2023-04-03T09:41:06;1.73;;;0.40;;
75691;SDS011;64307;52.508;6.090;2023-04-03T09:43:33;3.53;;;0.50;;
75691;SDS011;64307;52.508;6.090;2023-04-03T09:49:04;2.10;;;0.93;;
75691;SDS011;64307;52.508;6.090;2023-04-03T09:51:30;1.90;;;0.80;;
75691;SDS011;64307;52.508;6.090;2023-04-03T09:53:56;1.63;;;0.32;;
75691;SDS011;64307;52.508;6.090;2023-04-03T09:56:24;1.20;;;0.30;;
75691;SDS011;64307;52.508;6.090;2023-04-03T10:04:09;3.15;;;0.45;;
75691;SDS011;64307;52.508;6.090;2023-04-03T10:09:19;1.35;;;0.40;;
75691;SDS011;64307;52.508;6.090;2023-04-03T10:12:06;2.35;;;0.52;;
75691;SDS011;64307;52.508;6.090;2023-04-03T10:14:35;2.10;;;0.40;;
75691;SDS011;64307;52.508;6.090;2023-04-03T10:17:18;2.03;;;0.85;;
75691;SDS011;64307;52.508;6.090;2023-04-03T10:19:58;2.38;;;0.73;;
75691;SDS011;64307;52.508;6.090;2023-04-03T10:31:14;1.70;;;0.22;;
75691;SDS011;64307;52.508;6.090;2023-04-03T10:33:49;1.67;;;0.32;;
75691;SDS011;64307;52.508;6.090;2023-04-03T10:36:23;2.08;;;0.50;;
75691;SDS011;64307;52.508;6.090;2023-04-03T10:47:05;1.90;;;0.30;;
75691;SDS011;64307;52.508;6.090;2023-04-03T10:49:43;1.77;;;0.32;;
75691;SDS011;64307;52.508;6.090;2023-04-03T10:52:22;2.35;;;0.45;;
75691;SDS011;64307;52.508;6.090;2023-04-03T10:57:23;1.42;;;0.50;;
75691;SDS011;64307;52.508;6.090;2023-04-03T10:59:54;1.38;;;0.43;;
75691;SDS011;64307;52.508;6.090;2023-04-03T11:02:33;1.27;;;0.50;;
75691;SDS011;64307;52.508;6.090;2023-04-03T11:05:25;2.15;;;0.40;;
75691;SDS011;64307;52.508;6.090;2023-04-03T11:07:56;2.03;;;0.43;;
75691;SDS011;64307;52.508;6.090;2023-04-03T11:10:37;1.58;;;0.45;;
75691;SDS011;64307;52.508;6.090;2023-04-03T11:13:09;4.38;;;0.70;;
75691;SDS011;64307;52.508;6.090;2023-04-03T11:15:41;2.40;;;0.30;;
75691;SDS011;64307;52.508;6.090;2023-04-03T11:18:13;1.73;;;0.47;;
75691;SDS011;64307;52.508;6.090;2023-04-03T11:20:44;1.60;;;0.43;;
75691;SDS011;64307;52.508;6.090;2023-04-03T11:23:23;3.70;;;0.52;;
75691;SDS011;64307;52.508;6.090;2023-04-03T11:25:53;1.35;;;0.30;;
75691;SDS011;64307;52.508;6.090;2023-04-03T11:28:23;1.98;;;0.40;;
75691;SDS011;64307;52.508;6.090;2023-04-03T11:33:41;2.10;;;0.40;;
75691;SDS011;64307;52.508;6.090;2023-04-03T11:36:12;2.35;;;0.55;;
75691;SDS011;64307;52.508;6.090;2023-04-03T11:38:46;3.17;;;0.32;;
75691;SDS011;64307;52.508;6.090;2023-04-03T11:41:13;1.90;;;0.50;;
75691;SDS011;64307;52.508;6.090;2023-04-03T11:43:42;2.00;;;0.73;;
75691;SDS011;64307;52.508;6.090;2023-04-03T11:46:23;1.70;;;0.77;;
75691;SDS011;64307;52.508;6.090;2023-04-03T12:13:40;2.42;;;0.60;;
75691;SDS011;64307;52.508;6.090;2023-04-03T12:16:30;1.75;;;0.52;;
75691;SDS011;64307;52.508;6.090;2023-04-03T12:22:09;3.47;;;0.32;;
75691;SDS011;64307;52.508;6.090;2023-04-03T12:24:38;3.55;;;0.47;;
75691;SDS011;64307;52.508;6.090;2023-04-03T12:27:09;2.05;;;1.02;;
75691;SDS011;64307;52.508;6.090;2023-04-03T12:29:42;2.85;;;0.60;;
75691;SDS011;64307;52.508;6.090;2023-04-03T12:46:19;3.55;;;0.60;;
75691;SDS011;64307;52.508;6.090;2023-04-03T12:48:56;1.90;;;0.70;;
75691;SDS011;64307;52.508;6.090;2023-04-03T12:54:00;3.38;;;0.30;;
75691;SDS011;64307;52.508;6.090;2023-04-03T12:56:31;2.05;;;0.32;;
75691;SDS011;64307;52.508;6.090;2023-04-03T13:01:43;2.47;;;0.40;;
75691;SDS011;64307;52.508;6.090;2023-04-03T13:04:17;2.67;;;0.50;;
75691;SDS011;64307;52.508;6.090;2023-04-03T13:06:43;2.53;;;0.60;;
75691;SDS011;64307;52.508;6.090;2023-04-03T13:09:28;2.17;;;0.80;;
75691;SDS011;64307;52.508;6.090;2023-04-03T13:14:38;3.28;;;0.73;;
75691;SDS011;64307;52.508;6.090;2023-04-03T13:17:10;2.35;;;0.40;;
75691;SDS011;64307;52.508;6.090;2023-04-03T13:22:05;3.88;;;1.55;;
75691;SDS011;64307;52.508;6.090;2023-04-03T13:24:35;3.03;;;0.95;;
75691;SDS011;64307;52.508;6.090;2023-04-03T13:27:03;1.02;;;0.43;;
75691;SDS011;64307;52.508;6.090;2023-04-03T13:29:38;3.95;;;0.55;;
75691;SDS011;64307;52.508;6.090;2023-04-03T13:32:04;2.35;;;0.50;;
75691;SDS011;64307;52.508;6.090;2023-04-03T13:34:36;2.88;;;0.57;;
75691;SDS011;64307;52.508;6.090;2023-04-03T13:37:04;1.77;;;0.60;;
75691;SDS011;64307;52.508;6.090;2023-04-03T13:41:57;3.78;;;0.50;;
75691;SDS011;64307;52.508;6.090;2023-04-03T13:44:32;3.67;;;0.70;;
75691;SDS011;64307;52.508;6.090;2023-04-03T13:49:37;2.22;;;0.82;;
75691;SDS011;64307;52.508;6.090;2023-04-03T13:54:52;2.92;;;0.60;;
75691;SDS011;64307;52.508;6.090;2023-04-03T13:57:25;1.90;;;0.52;;
75691;SDS011;64307;52.508;6.090;2023-04-03T13:59:51;5.22;;;0.60;;
75691;SDS011;64307;52.508;6.090;2023-04-03T14:02:22;4.15;;;0.80;;
75691;SDS011;64307;52.508;6.090;2023-04-03T14:04:56;3.17;;;0.85;;
75691;SDS011;64307;52.508;6.090;2023-04-03T14:07:26;1.88;;;0.43;;
75691;SDS011;64307;52.508;6.090;2023-04-03T14:09:52;2.92;;;0.73;;
75691;SDS011;64307;52.508;6.090;2023-04-03T14:15:03;1.38;;;0.52;;
75691;SDS011;64307;52.508;6.090;2023-04-03T14:17:35;2.75;;;0.60;;
75691;SDS011;64307;52.508;6.090;2023-04-03T14:22:28;3.80;;;0.30;;
75691;SDS011;64307;52.508;6.090;2023-04-03T14:24:55;2.70;;;0.82;;
75691;SDS011;64307;52.508;6.090;2023-04-03T14:29:48;2.22;;;0.55;;
75691;SDS011;64307;52.508;6.090;2023-04-03T14:32:15;1.98;;;0.50;;
75691;SDS011;64307;52.508;6.090;2023-04-03T14:34:42;2.25;;;0.40;;
75691;SDS011;64307;52.508;6.090;2023-04-03T14:37:09;3.20;;;0.68;;
75691;SDS011;64307;52.508;6.090;2023-04-03T14:39:37;1.63;;;0.55;;
75691;SDS011;64307;52.508;6.090;2023-04-03T14:44:27;2.22;;;0.93;;
75691;SDS011;64307;52.508;6.090;2023-04-03T14:49:19;2.97;;;0.40;;
75691;SDS011;64307;52.508;6.090;2023-04-03T14:51:47;4.20;;;0.73;;
75691;SDS011;64307;52.508;6.090;2023-04-03T14:56:39;2.08;;;0.70;;
75691;SDS011;64307;52.508;6.090;2023-04-03T15:01:34;2.33;;;0.60;;
75691;SDS011;64307;52.508;6.090;2023-04-03T15:06:25;5.17;;;1.07;;
75691;SDS011;64307;52.508;6.090;2023-04-03T15:08:51;3.25;;;1.15;;
75691;SDS011;64307;52.508;6.090;2023-04-03T15:11:16;5.30;;;0.80;;
75691;SDS011;64307;52.508;6.090;2023-04-03T15:16:14;1.70;;;0.20;;
75691;SDS011;64307;52.508;6.090;2023-04-03T15:18:42;4.25;;;0.68;;
75691;SDS011;64307;52.508;6.090;2023-04-03T15:21:07;2.40;;;0.70;;
75691;SDS011;64307;52.508;6.090;2023-04-03T15:23:32;1.98;;;0.32;;
75691;SDS011;64307;52.508;6.090;2023-04-03T15:25:58;2.42;;;0.68;;
75691;SDS011;64307;52.508;6.090;2023-04-03T15:28:31;3.55;;;0.63;;
75691;SDS011;64307;52.508;6.090;2023-04-03T15:30:58;3.40;;;0.50;;
75691;SDS011;64307;52.508;6.090;2023-04-03T15:33:24;2.05;;;0.75;;
75691;SDS011;64307;52.508;6.090;2023-04-03T15:38:15;1.73;;;0.70;;
75691;SDS011;64307;52.508;6.090;2023-04-03T15:40:41;3.10;;;0.88;;
75691;SDS011;64307;52.508;6.090;2023-04-03T15:43:07;3.20;;;1.00;;
75691;SDS011;64307;52.508;6.090;2023-04-03T15:45:33;4.50;;;0.85;;
75691;SDS011;64307;52.508;6.090;2023-04-03T15:48:02;3.33;;;0.82;;
75691;SDS011;64307;52.508;6.090;2023-04-03T15:50:28;4.60;;;1.30;;
75691;SDS011;64307;52.508;6.090;2023-04-03T15:52:54;3.88;;;1.10;;
75691;SDS011;64307;52.508;6.090;2023-04-03T15:55:26;1.70;;;0.50;;
75691;SDS011;64307;52.508;6.090;2023-04-03T15:57:53;5.40;;;1.33;;
75691;SDS011;64307;52.508;6.090;2023-04-03T16:00:19;3.15;;;0.90;;
75691;SDS011;64307;52.508;6.090;2023-04-03T16:02:45;3.50;;;0.68;;
75691;SDS011;64307;52.508;6.090;2023-04-03T16:05:12;5.20;;;0.85;;
75691;SDS011;64307;52.508;6.090;2023-04-03T16:07:39;5.75;;;1.20;;
75691;SDS011;64307;52.508;6.090;2023-04-03T16:12:30;5.07;;;0.68;;
75691;SDS011;64307;52.508;6.090;2023-04-03T16:17:21;2.33;;;0.80;;
75691;SDS011;64307;52.508;6.090;2023-04-03T16:22:13;3.55;;;0.70;;
75691;SDS011;64307;52.508;6.090;2023-04-03T16:27:04;1.90;;;0.60;;
75691;SDS011;64307;52.508;6.090;2023-04-03T16:29:29;2.03;;;0.75;;
75691;SDS011;64307;52.508;6.090;2023-04-03T16:31:55;7.22;;;1.38;;
75691;SDS011;64307;52.508;6.090;2023-04-03T16:34:23;1.88;;;0.80;;
75691;SDS011;64307;52.508;6.090;2023-04-03T16:36:50;3.95;;;1.27;;
75691;SDS011;64307;52.508;6.090;2023-04-03T16:39:17;3.65;;;1.05;;
75691;SDS011;64307;52.508;6.090;2023-04-03T16:41:45;2.35;;;0.68;;
75691;SDS011;64307;52.508;6.090;2023-04-03T16:44:11;2.20;;;0.90;;
75691;SDS011;64307;52.508;6.090;2023-04-03T16:46:36;2.88;;;0.52;;
75691;SDS011;64307;52.508;6.090;2023-04-03T16:49:02;3.58;;;0.82;;
75691;SDS011;64307;52.508;6.090;2023-04-03T16:51:28;3.58;;;0.85;;
75691;SDS011;64307;52.508;6.090;2023-04-03T16:53:53;2.55;;;0.70;;
75691;SDS011;64307;52.508;6.090;2023-04-03T16:56:19;2.67;;;0.63;;
75691;SDS011;64307;52.508;6.090;2023-04-03T17:01:11;4.83;;;1.10;;
75691;SDS011;64307;52.508;6.090;2023-04-03T17:03:38;2.40;;;0.70;;
75691;SDS011;64307;52.508;6.090;2023-04-03T17:06:04;2.95;;;0.50;;
75691;SDS011;64307;52.508;6.090;2023-04-03T17:08:31;4.28;;;0.82;;
75691;SDS011;64307;52.508;6.090;2023-04-03T17:10:56;5.22;;;0.52;;
75691;SDS011;64307;52.508;6.090;2023-04-03T17:13:22;6.25;;;0.95;;
75691;SDS011;64307;52.508;6.090;2023-04-03T17:15:47;3.78;;;0.80;;
75691;SDS011;64307;52.508;6.090;2023-04-03T17:18:13;3.63;;;0.98;;
75691;SDS011;64307;52.508;6.090;2023-04-03T17:20:38;3.42;;;1.00;;
75691;SDS011;64307;52.508;6.090;2023-04-03T17:23:04;4.80;;;1.08;;
75691;SDS011;64307;52.508;6.090;2023-04-03T17:25:30;4.75;;;1.23;;